createdAt,value
2023-01-19T00:01:43.803Z,-4.76
2023-01-19T00:04:12.042Z,-4.71
2023-01-19T00:06:41.877Z,-4.85
2023-01-19T00:09:10.147Z,-4.77
2023-01-19T00:11:38.382Z,-4.93
2023-01-19T00:14:06.864Z,-4.99
2023-01-19T00:16:35.113Z,-5.12
2023-01-19T00:19:03.405Z,-5.11
2023-01-19T00:21:31.552Z,-5.12
2023-01-19T00:24:01.132Z,-5.05
2023-01-19T00:26:29.312Z,-5.11
2023-01-19T00:28:57.953Z,-5.10
2023-01-19T00:31:26.241Z,-5.26
2023-01-19T00:33:54.515Z,-5.19
2023-01-19T00:36:22.684Z,-5.32
2023-01-19T00:38:50.865Z,-5.39
2023-01-19T00:41:40.801Z,-5.38
2023-01-19T00:44:08.477Z,-5.45
2023-01-19T00:46:36.719Z,-5.70
2023-01-19T00:49:04.947Z,-5.55
2023-01-19T00:51:33.364Z,-5.42
2023-01-19T00:54:04.865Z,-5.56
2023-01-19T00:56:35.378Z,-5.43
2023-01-19T00:59:04.075Z,-5.70
2023-01-19T01:01:45.429Z,-5.34
2023-01-19T01:04:19.436Z,-5.36
2023-01-19T01:06:50.613Z,-5.41
2023-01-19T01:09:18.811Z,-5.38
2023-01-19T01:11:48.347Z,-5.41
2023-01-19T01:14:17.367Z,-5.35
2023-01-19T01:16:45.710Z,-5.39
2023-01-19T01:19:13.950Z,-5.51
2023-01-19T01:21:42.239Z,-5.61
2023-01-19T01:24:12.739Z,-5.63
2023-01-19T01:26:40.931Z,-5.71
2023-01-19T01:29:10.539Z,-5.62
2023-01-19T01:31:38.768Z,-5.77
2023-01-19T01:34:07.261Z,-5.70
2023-01-19T01:36:36.089Z,-5.77
2023-01-19T01:39:05.023Z,-5.64
2023-01-19T01:41:33.816Z,-6.85
2023-01-19T01:44:06.238Z,-5.81
2023-01-19T01:46:35.813Z,-5.87
2023-01-19T01:49:09.268Z,-5.82
2023-01-19T01:51:42.180Z,-5.95
2023-01-19T01:54:19.406Z,-5.74
2023-01-19T01:56:49.904Z,-5.84
2023-01-19T01:59:29.825Z,-5.68
2023-01-19T02:02:21.852Z,-5.26
2023-01-19T02:04:55.243Z,-5.93
2023-01-19T02:07:55.389Z,-5.97
2023-01-19T02:10:41.179Z,-6.07
2023-01-19T02:13:18.547Z,-6.04
2023-01-19T02:15:46.877Z,-6.01
2023-01-19T02:18:16.781Z,-6.41
2023-01-19T02:21:00.676Z,-6.11
2023-01-19T02:23:40.852Z,-5.87
2023-01-19T02:26:12.121Z,-5.93
2023-01-19T02:28:44.640Z,-5.81
2023-01-19T02:31:15.167Z,-5.72
2023-01-19T02:33:43.917Z,-5.93
2023-01-19T02:36:16.819Z,-5.84
2023-01-19T02:38:48.248Z,-5.88
2023-01-19T02:41:21.108Z,-5.97
2023-01-19T02:43:50.424Z,-6.61
2023-01-19T02:46:18.832Z,-6.15
2023-01-19T02:48:47.049Z,-6.18
2023-01-19T02:51:18.814Z,-6.15
2023-01-19T02:54:20.668Z,-6.16
2023-01-19T02:57:28.185Z,-6.09
2023-01-19T03:00:13.793Z,-6.04
2023-01-19T03:02:56.911Z,-6.03
2023-01-19T03:05:44.824Z,-5.89
2023-01-19T03:08:23.131Z,-5.85
2023-01-19T03:10:59.092Z,-5.85
2023-01-19T03:13:35.587Z,-5.68
2023-01-19T03:16:12.611Z,-5.93
2023-01-19T03:18:45.020Z,-6.58
2023-01-19T03:21:15.588Z,-5.82
2023-01-19T03:23:47.693Z,-5.78
2023-01-19T03:26:26.147Z,-5.91
2023-01-19T03:28:57.598Z,-5.82
2023-01-19T03:31:28.821Z,-6.95
2023-01-19T03:34:00.866Z,-6.35
2023-01-19T03:36:34.055Z,-6.20
2023-01-19T03:39:05.683Z,-6.20
2023-01-19T03:41:37.550Z,-6.21
2023-01-19T03:44:06.952Z,-6.04
2023-01-19T03:46:35.854Z,-5.98
2023-01-19T03:49:04.049Z,-5.92
2023-01-19T03:51:36.970Z,-5.76
2023-01-19T03:54:05.622Z,-5.67
2023-01-19T03:56:35.247Z,-5.64
2023-01-19T03:59:05.407Z,-5.51
2023-01-19T04:01:33.934Z,-5.40
2023-01-19T04:04:02.168Z,-5.37
2023-01-19T04:06:30.520Z,-5.31
2023-01-19T04:08:58.692Z,-5.17
2023-01-19T04:11:26.982Z,-5.42
2023-01-19T04:13:59.790Z,-5.30
2023-01-19T04:16:29.100Z,-5.26
2023-01-19T04:18:57.322Z,-5.28
2023-01-19T04:21:25.578Z,-5.27
2023-01-19T04:23:54.175Z,-5.06
2023-01-19T04:26:22.424Z,-5.11
2023-01-19T04:28:50.558Z,-4.93
2023-01-19T04:31:20.265Z,-4.95
2023-01-19T04:33:48.446Z,-4.94
2023-01-19T04:36:16.786Z,-4.85
2023-01-19T04:38:46.603Z,-4.85
2023-01-19T04:41:15.387Z,-4.94
2023-01-19T04:43:43.540Z,-4.81
2023-01-19T04:46:11.787Z,-5.02
2023-01-19T04:48:42.203Z,-4.93
2023-01-19T04:51:10.460Z,-5.11
2023-01-19T04:53:38.650Z,-5.35
2023-01-19T04:56:07.456Z,-5.01
2023-01-19T04:58:35.992Z,-4.95
2023-01-19T05:01:09.536Z,-5.02
2023-01-19T05:03:37.835Z,-4.98
2023-01-19T05:06:09.781Z,-4.96
2023-01-19T05:08:37.939Z,-4.84
2023-01-19T05:11:06.481Z,-4.74
2023-01-19T05:13:35.139Z,-4.67
2023-01-19T05:16:04.007Z,-4.59
2023-01-19T05:18:35.985Z,-4.66
2023-01-19T05:21:04.200Z,-4.54
2023-01-19T05:23:34.142Z,-5.04
2023-01-19T05:26:05.260Z,-4.40
2023-01-19T05:28:34.359Z,-5.03
2023-01-19T05:31:02.655Z,-4.36
2023-01-19T05:33:30.953Z,-4.17
2023-01-19T05:35:59.144Z,-4.15
2023-01-19T05:38:35.359Z,-4.17
2023-01-19T05:41:05.620Z,-4.12
2023-01-19T05:43:33.828Z,-4.17
2023-01-19T05:46:08.267Z,-3.99
2023-01-19T05:48:36.841Z,-4.19
2023-01-19T05:51:05.761Z,-4.26
2023-01-19T05:53:33.892Z,-4.20
2023-01-19T05:56:05.589Z,-4.15
2023-01-19T05:58:34.460Z,-4.12
2023-01-19T06:01:05.481Z,-4.13
2023-01-19T06:03:34.197Z,-4.06
2023-01-19T06:06:02.749Z,-4.17
2023-01-19T06:08:31.400Z,-4.18
2023-01-19T06:10:59.597Z,-4.35
2023-01-19T06:13:29.138Z,-4.18
2023-01-19T06:16:01.155Z,-4.23
2023-01-19T06:18:29.876Z,-4.22
2023-01-19T06:20:59.535Z,-4.35
2023-01-19T06:23:28.211Z,-4.20
2023-01-19T06:25:56.733Z,-4.05
2023-01-19T06:28:25.524Z,-4.04
2023-01-19T06:30:57.050Z,-3.98
2023-01-19T06:33:26.244Z,-3.92
2023-01-19T06:35:54.763Z,-4.00
2023-01-19T06:38:23.557Z,-3.90
2023-01-19T06:40:58.522Z,-3.96
2023-01-19T06:43:27.753Z,-3.95
2023-01-19T06:45:57.548Z,-3.94
2023-01-19T06:48:25.862Z,-3.96
2023-01-19T06:50:54.172Z,-3.84
2023-01-19T06:53:22.513Z,-4.02
2023-01-19T06:55:50.713Z,-3.82
2023-01-19T06:58:19.071Z,-3.87
2023-01-19T07:00:47.268Z,-3.74
2023-01-19T07:03:21.805Z,-3.67
2023-01-19T07:05:53.655Z,-3.58
2023-01-19T07:08:21.892Z,-3.73
2023-01-19T07:11:25.392Z,-3.66
2023-01-19T07:13:40.643Z,-3.67
2023-01-19T07:16:11.248Z,-3.62
2023-01-19T07:18:42.080Z,-3.66
2023-01-19T07:21:10.857Z,-3.60
2023-01-19T07:23:39.049Z,-3.53
2023-01-19T07:26:07.656Z,-3.41
2023-01-19T07:28:36.992Z,-3.45
2023-01-19T07:31:06.337Z,-3.43
2023-01-19T07:33:34.516Z,-3.34
2023-01-19T07:36:04.353Z,-3.37
2023-01-19T07:38:32.683Z,-3.35
2023-01-19T07:41:06.186Z,-3.97
2023-01-19T07:43:34.584Z,-3.15
2023-01-19T07:46:06.878Z,-3.34
2023-01-19T07:48:35.567Z,-3.19
2023-01-19T07:51:10.403Z,-3.10
2023-01-19T07:53:41.807Z,-3.11
2023-01-19T07:56:10.386Z,-3.09
2023-01-19T07:58:38.636Z,-3.04
2023-01-19T08:01:08.793Z,-3.09
2023-01-19T08:03:37.128Z,-3.14
2023-01-19T08:06:07.765Z,-3.01
2023-01-19T08:08:36.203Z,-3.08
2023-01-19T08:11:04.725Z,-2.95
2023-01-19T08:13:32.885Z,-3.05
2023-01-19T08:16:01.132Z,-2.97
2023-01-19T08:18:29.308Z,-3.11
2023-01-19T08:20:59.829Z,-3.18
2023-01-19T08:23:29.594Z,-4.55
2023-01-19T08:25:58.076Z,-3.24
2023-01-19T08:28:26.493Z,-3.13
2023-01-19T08:30:55.493Z,-3.07
2023-01-19T08:33:25.337Z,-3.06
2023-01-19T08:35:55.265Z,-2.97
2023-01-19T08:38:24.758Z,-2.77
2023-01-19T08:40:54.413Z,-2.75
2023-01-19T08:43:22.740Z,-2.64
2023-01-19T08:45:53.530Z,-2.62
2023-01-19T08:48:23.622Z,-2.58
2023-01-19T08:50:53.690Z,-2.51
2023-01-19T08:53:24.196Z,-2.58
2023-01-19T08:55:59.829Z,-2.43
2023-01-19T08:58:28.659Z,-2.44
2023-01-19T09:00:57.247Z,-2.35
2023-01-19T09:03:25.481Z,-2.58
2023-01-19T09:05:54.983Z,-2.32
2023-01-19T09:08:23.508Z,-2.21
2023-01-19T09:10:54.111Z,-2.06
2023-01-19T09:13:22.288Z,-2.07
2023-01-19T09:15:50.927Z,-2.82
2023-01-19T09:18:21.679Z,-2.20
2023-01-19T09:20:51.665Z,-2.15
2023-01-19T09:23:22.805Z,-2.14
2023-01-19T09:26:00.582Z,-2.20
2023-01-19T09:28:29.843Z,-2.28
2023-01-19T09:30:58.551Z,-2.31
2023-01-19T09:33:26.815Z,-2.31
2023-01-19T09:35:54.995Z,-2.34
2023-01-19T09:38:24.042Z,-2.45
2023-01-19T09:40:55.480Z,-2.55
2023-01-19T09:43:39.140Z,-2.26
2023-01-19T09:46:13.527Z,-2.34
2023-01-19T09:48:47.400Z,-2.02
2023-01-19T09:51:20.126Z,-1.98
2023-01-19T09:53:58.798Z,-1.24
2023-01-19T09:56:29.351Z,-1.78
2023-01-19T09:59:00.132Z,-1.77
2023-01-19T10:01:39.423Z,-1.64
2023-01-19T10:04:29.514Z,-1.85
2023-01-19T10:07:09.066Z,-1.52
2023-01-19T10:09:50.506Z,-1.69
2023-01-19T10:12:33.524Z,-1.74
2023-01-19T10:15:15.584Z,-1.90
2023-01-19T10:18:03.533Z,-1.54
2023-01-19T10:20:41.552Z,-1.66
2023-01-19T10:23:34.181Z,-1.57
2023-01-19T10:26:08.679Z,-1.58
2023-01-19T10:28:38.093Z,-1.59
2023-01-19T10:31:09.634Z,-1.73
2023-01-19T10:33:39.650Z,-1.66
2023-01-19T10:36:21.359Z,-1.79
2023-01-19T10:38:49.962Z,-1.55
2023-01-19T10:41:22.288Z,-1.61
2023-01-19T10:43:51.174Z,-1.50
2023-01-19T10:46:26.947Z,-1.36
2023-01-19T10:48:56.365Z,-1.23
2023-01-19T10:51:24.910Z,-1.57
2023-01-19T10:54:02.168Z,-0.94
2023-01-19T10:56:35.202Z,-0.97
2023-01-19T10:59:06.603Z,-1.32
2023-01-19T11:02:00.894Z,-0.89
2023-01-19T11:04:31.134Z,-0.70
2023-01-19T11:07:16.207Z,-0.81
2023-01-19T11:09:44.523Z,-0.60
2023-01-19T11:12:21.485Z,-0.70
2023-01-19T11:14:52.298Z,-0.66
2023-01-19T11:17:25.135Z,-0.76
2023-01-19T11:20:02.490Z,-1.27
2023-01-19T11:22:33.242Z,-0.61
2023-01-19T11:25:08.542Z,-0.51
2023-01-19T11:27:38.379Z,-0.60
2023-01-19T11:30:18.948Z,-0.63
2023-01-19T11:32:49.290Z,-0.68
2023-01-19T11:35:37.028Z,-0.98
2023-01-19T11:38:19.198Z,-0.54
2023-01-19T11:40:57.280Z,-0.54
2023-01-19T11:43:43.297Z,-0.65
2023-01-19T11:46:17.647Z,-0.84
2023-01-19T11:48:56.540Z,-0.68
2023-01-19T11:51:29.569Z,-1.03
2023-01-19T11:53:58.037Z,-0.82
2023-01-19T11:56:30.430Z,-1.70
2023-01-19T11:58:58.659Z,-0.78
2023-01-19T12:01:31.519Z,-0.75
2023-01-19T12:04:05.519Z,-0.76
2023-01-19T12:06:37.036Z,-0.68
2023-01-19T12:09:14.080Z,-1.54
2023-01-19T12:11:50.286Z,-0.75
2023-01-19T12:14:27.056Z,-0.70
2023-01-19T12:16:59.883Z,-0.81
2023-01-19T12:19:41.116Z,-0.67
2023-01-19T12:22:14.524Z,-0.68
2023-01-19T12:24:49.248Z,-1.44
2023-01-19T12:27:31.946Z,-0.81
2023-01-19T12:30:00.462Z,-0.56
2023-01-19T12:32:36.781Z,-0.67
2023-01-19T12:35:07.626Z,-0.70
2023-01-19T12:37:40.706Z,-0.82
2023-01-19T12:40:25.574Z,-0.71
2023-01-19T12:43:00.943Z,-0.65
2023-01-19T12:45:34.972Z,-0.72
2023-01-19T12:48:05.063Z,-0.81
2023-01-19T12:50:38.666Z,-0.81
2023-01-19T12:53:20.703Z,-0.78
2023-01-19T12:56:00.180Z,-0.75
2023-01-19T12:58:28.664Z,-0.80
2023-01-19T13:01:16.634Z,-0.67
2023-01-19T13:04:26.691Z,-0.83
2023-01-19T13:07:18.054Z,-0.80
2023-01-19T13:09:46.257Z,-0.74
2023-01-19T13:12:23.063Z,-0.63
2023-01-19T13:14:51.751Z,-0.68
2023-01-19T13:17:33.538Z,-0.77
2023-01-19T13:20:19.819Z,-0.76
2023-01-19T13:23:19.768Z,-0.79
2023-01-19T13:26:03.847Z,-0.71
2023-01-19T13:28:39.186Z,-1.34
2023-01-19T13:31:09.939Z,-0.81
2023-01-19T13:33:50.013Z,-0.96
2023-01-19T13:36:26.226Z,-0.94
2023-01-19T13:38:57.570Z,-0.84
2023-01-19T13:41:29.724Z,-0.91
2023-01-19T13:44:03.438Z,-0.94
2023-01-19T13:46:33.682Z,-0.94
2023-01-19T13:49:12.637Z,-0.90
2023-01-19T13:51:40.846Z,-0.94
2023-01-19T13:54:17.916Z,-1.09
2023-01-19T13:56:50.143Z,-1.02
2023-01-19T13:59:18.424Z,-1.12
2023-01-19T14:01:49.202Z,-1.16
2023-01-19T14:04:31.934Z,-1.22
2023-01-19T14:07:03.607Z,-1.07
2023-01-19T14:09:33.621Z,-1.24
2023-01-19T14:12:14.001Z,-1.05
2023-01-19T14:14:43.332Z,-1.04
2023-01-19T14:17:27.879Z,-0.91
2023-01-19T14:19:57.889Z,-0.94
2023-01-19T14:22:44.931Z,-0.87
2023-01-19T14:25:32.333Z,-0.94
2023-01-19T14:28:39.536Z,-0.94
2023-01-19T14:31:22.029Z,-0.98
2023-01-19T14:33:53.705Z,-1.97
2023-01-19T14:36:33.228Z,-0.95
2023-01-19T14:39:02.977Z,-1.12
2023-01-19T14:41:38.935Z,-1.16
2023-01-19T14:44:10.808Z,-1.09
2023-01-19T14:46:45.773Z,-1.07
2023-01-19T14:49:22.579Z,-1.05
2023-01-19T14:51:51.201Z,-0.87
2023-01-19T14:54:29.419Z,-0.88
2023-01-19T14:56:58.893Z,-0.93
2023-01-19T14:59:27.182Z,-0.96
2023-01-19T15:01:55.408Z,-0.68
2023-01-19T15:04:25.395Z,-0.70
2023-01-19T15:06:53.713Z,-0.85
2023-01-19T15:09:21.941Z,-0.87
2023-01-19T15:11:51.433Z,-0.83
2023-01-19T15:14:22.504Z,-0.96
2023-01-19T15:16:51.242Z,-1.01
2023-01-19T15:19:19.584Z,-1.11
2023-01-19T15:21:47.807Z,-1.08
2023-01-19T15:24:17.930Z,-1.33
2023-01-19T15:26:46.603Z,-1.21
2023-01-19T15:29:27.090Z,-1.71
2023-01-19T15:31:55.331Z,-1.30
2023-01-19T15:34:23.527Z,-1.30
2023-01-19T15:36:51.720Z,-1.37
2023-01-19T15:39:20.457Z,-1.34
2023-01-19T15:41:49.441Z,-1.41
2023-01-19T15:44:34.063Z,-1.38
2023-01-19T15:47:02.221Z,-1.55
2023-01-19T15:49:31.176Z,-1.51
2023-01-19T15:51:59.344Z,-1.62
2023-01-19T15:54:27.566Z,-1.70
2023-01-19T15:56:55.743Z,-1.52
2023-01-19T15:59:24.063Z,-1.71
2023-01-19T16:01:53.727Z,-1.68
2023-01-19T16:04:21.990Z,-1.53
2023-01-19T16:06:50.771Z,-1.47
2023-01-19T16:09:20.121Z,-1.52
2023-01-19T16:11:48.343Z,-1.52
2023-01-19T16:14:17.558Z,-1.53
2023-01-19T16:16:46.185Z,-1.55
2023-01-19T16:19:16.826Z,-1.71
2023-01-19T16:21:44.989Z,-1.71
2023-01-19T16:24:13.221Z,-1.61
2023-01-19T16:26:41.523Z,-1.58
2023-01-19T16:29:10.960Z,-1.63
2023-01-19T16:31:41.014Z,-1.52
2023-01-19T16:34:09.886Z,-1.52
2023-01-19T16:36:41.378Z,-1.72
2023-01-19T16:39:13.476Z,-1.44
2023-01-19T16:41:42.927Z,-1.55
2023-01-19T16:44:12.594Z,-1.51
2023-01-19T16:46:43.786Z,-1.54
2023-01-19T16:49:16.182Z,-1.46
2023-01-19T16:51:46.105Z,-1.53
2023-01-19T16:54:15.667Z,-1.54
2023-01-19T16:56:44.407Z,-1.49
2023-01-19T16:59:14.024Z,-1.68
2023-01-19T17:01:44.750Z,-1.49
2023-01-19T17:04:13.162Z,-1.63
2023-01-19T17:06:42.292Z,-1.56
2023-01-19T17:09:11.817Z,-1.53
2023-01-19T17:11:41.208Z,-1.61
2023-01-19T17:14:12.570Z,-1.70
2023-01-19T17:16:40.869Z,-1.67
2023-01-19T17:19:09.877Z,-1.60
2023-01-19T17:21:38.037Z,-1.55
2023-01-19T17:24:07.030Z,-1.55
2023-01-19T17:26:36.538Z,-1.62
2023-01-19T17:29:08.278Z,-1.53
2023-01-19T17:31:37.418Z,-1.45
2023-01-19T17:34:05.995Z,-1.47
2023-01-19T17:36:34.915Z,-1.49
2023-01-19T17:39:07.701Z,-1.40
2023-01-19T17:41:37.431Z,-1.54
2023-01-19T17:44:07.246Z,-1.54
2023-01-19T17:46:38.630Z,-1.52
2023-01-19T17:49:08.505Z,-1.56
2023-01-19T17:51:37.039Z,-1.59
2023-01-19T17:54:05.347Z,-1.54
2023-01-19T17:56:38.629Z,-1.61
2023-01-19T17:59:08.184Z,-1.71
2023-01-19T18:01:40.318Z,-2.51
2023-01-19T18:04:09.883Z,-1.76
2023-01-19T18:06:38.526Z,-1.70
2023-01-19T18:09:07.460Z,-1.68
2023-01-19T18:11:37.260Z,-1.75
2023-01-19T18:14:06.643Z,-1.63
2023-01-19T18:16:35.863Z,-1.69
2023-01-19T18:19:04.538Z,-1.73
2023-01-19T18:21:32.748Z,-1.77
2023-01-19T18:24:03.637Z,-1.76
2023-01-19T18:26:33.086Z,-1.73
2023-01-19T18:29:02.809Z,-1.74
2023-01-19T18:31:31.417Z,-1.73
2023-01-19T18:33:59.637Z,-1.67
2023-01-19T18:36:28.153Z,-1.83
2023-01-19T18:38:56.445Z,-1.81
2023-01-19T18:41:24.757Z,-1.77
2023-01-19T18:43:54.524Z,-1.75
2023-01-19T18:46:24.286Z,-1.83
2023-01-19T18:48:53.023Z,-1.87
2023-01-19T18:51:21.561Z,-1.90
2023-01-19T18:53:50.328Z,-1.77
2023-01-19T18:56:18.669Z,-1.73
2023-01-19T18:58:47.164Z,-1.65
2023-01-19T19:01:23.842Z,-1.71
2023-01-19T19:03:58.242Z,-1.68
2023-01-19T19:06:27.523Z,-1.81
2023-01-19T19:08:59.112Z,-1.71
2023-01-19T19:11:28.246Z,-1.71
2023-01-19T19:13:58.787Z,-1.72
2023-01-19T19:16:29.554Z,-1.73
2023-01-19T19:18:58.182Z,-1.67
2023-01-19T19:21:26.385Z,-1.70
2023-01-19T19:23:55.879Z,-1.64
2023-01-19T19:26:26.123Z,-1.69
2023-01-19T19:28:54.385Z,-1.66
2023-01-19T19:31:26.036Z,-1.63
2023-01-19T19:33:58.736Z,-1.65
2023-01-19T19:36:28.560Z,-1.65
2023-01-19T19:38:56.725Z,-1.59
2023-01-19T19:41:27.779Z,-2.28
2023-01-19T19:43:56.637Z,-1.60
2023-01-19T19:46:25.765Z,-1.58
2023-01-19T19:48:55.861Z,-1.89
2023-01-19T19:51:27.346Z,-1.70
2023-01-19T19:53:57.346Z,-1.81
2023-01-19T19:56:31.801Z,-1.78
2023-01-19T19:59:00.970Z,-2.63
2023-01-19T20:01:33.456Z,-1.79
2023-01-19T20:04:08.955Z,-1.72
2023-01-19T20:06:39.748Z,-1.72
2023-01-19T20:09:10.719Z,-1.85
2023-01-19T20:11:39.200Z,-3.38
2023-01-19T20:14:08.844Z,-1.17
2023-01-19T20:16:37.839Z,-1.68
2023-01-19T20:19:07.796Z,-2.14
2023-01-19T20:21:38.712Z,-1.67
2023-01-19T20:24:09.724Z,-1.70
2023-01-19T20:26:43.026Z,-1.64
2023-01-19T20:29:12.108Z,-1.62
2023-01-19T20:31:44.255Z,-1.77
2023-01-19T20:34:17.289Z,-1.59
2023-01-19T20:36:49.514Z,-1.64
2023-01-19T20:39:18.286Z,-1.61
2023-01-19T20:41:48.500Z,-1.59
2023-01-19T20:44:19.954Z,-2.09
2023-01-19T20:46:48.705Z,-1.56
2023-01-19T20:49:19.752Z,-1.52
2023-01-19T20:51:48.309Z,-1.54
2023-01-19T20:54:19.662Z,-1.45
2023-01-19T20:56:48.170Z,-1.50
2023-01-19T20:59:16.389Z,-1.53
2023-01-19T21:01:45.664Z,-1.58
2023-01-19T21:04:18.184Z,-1.78
2023-01-19T21:06:48.343Z,-1.94
2023-01-19T21:09:18.462Z,-1.59
2023-01-19T21:11:46.648Z,-1.60
2023-01-19T21:14:15.010Z,-1.62
2023-01-19T21:16:43.529Z,-1.54
2023-01-19T21:19:11.944Z,-1.59
2023-01-19T21:21:41.624Z,-1.57
2023-01-19T21:24:11.720Z,-1.46
2023-01-19T21:26:41.689Z,-1.42
2023-01-19T21:29:13.196Z,-1.46
2023-01-19T21:31:41.814Z,-1.61
2023-01-19T21:34:10.641Z,-2.26
2023-01-19T21:36:38.826Z,-1.53
2023-01-19T21:39:09.064Z,-1.61
2023-01-19T21:41:39.739Z,-1.61
2023-01-19T21:44:08.132Z,-1.48
2023-01-19T21:46:36.309Z,-1.46
2023-01-19T21:49:06.307Z,-1.50
2023-01-19T21:51:37.347Z,-1.47
2023-01-19T21:54:08.377Z,-1.48
2023-01-19T21:56:37.984Z,-1.55
2023-01-19T21:59:07.484Z,-1.48
2023-01-19T22:01:36.544Z,-1.49
2023-01-19T22:04:04.887Z,-1.47
2023-01-19T22:06:33.095Z,-1.49
2023-01-19T22:09:01.688Z,-1.45
2023-01-19T22:11:31.311Z,-1.45
2023-01-19T22:14:00.498Z,-1.45
2023-01-19T22:16:30.437Z,-1.46
2023-01-19T22:19:02.096Z,-1.37
2023-01-19T22:21:35.019Z,-1.41
2023-01-19T22:24:04.854Z,-1.51
2023-01-19T22:26:36.830Z,-1.44
2023-01-19T22:29:10.975Z,-1.45
2023-01-19T22:31:40.083Z,-1.32
2023-01-19T22:34:11.803Z,-1.48
2023-01-19T22:36:40.151Z,-1.55
2023-01-19T22:39:11.614Z,-1.47
2023-01-19T22:41:43.936Z,-1.50
2023-01-19T22:44:16.025Z,-1.48
2023-01-19T22:46:44.833Z,-1.47
2023-01-19T22:49:15.706Z,-1.37
2023-01-19T22:51:44.321Z,-1.43
2023-01-19T22:54:12.760Z,-1.44
2023-01-19T22:56:43.348Z,-1.43
2023-01-19T22:59:11.552Z,-1.42
2023-01-19T23:01:42.411Z,-1.43
2023-01-19T23:04:14.649Z,-1.39
2023-01-19T23:06:52.213Z,-1.42
2023-01-19T23:09:20.724Z,-1.37
2023-01-19T23:11:51.209Z,-1.40
2023-01-19T23:14:21.903Z,-1.44
2023-01-19T23:16:50.260Z,-1.46
2023-01-19T23:19:19.297Z,-1.46
2023-01-19T23:21:47.572Z,-1.46
2023-01-19T23:24:15.698Z,-1.47
2023-01-19T23:26:43.855Z,-1.49
2023-01-19T23:29:15.936Z,-1.36
2023-01-19T23:31:47.167Z,-1.43
2023-01-19T23:34:15.735Z,-1.49
2023-01-19T23:36:44.693Z,-1.64
2023-01-19T23:39:17.176Z,-1.57
2023-01-19T23:41:45.718Z,-1.59
2023-01-19T23:44:15.658Z,-1.59
2023-01-19T23:46:44.848Z,-1.58
2023-01-19T23:49:13.160Z,-1.62
2023-01-19T23:51:42.061Z,-1.83
2023-01-19T23:54:12.196Z,-1.72
2023-01-19T23:56:42.594Z,-1.58
2023-01-19T23:59:14.843Z,-1.75
